sensor_id;sensor_type;location;lat;lon;timestamp;pressure;altitude;pressure_sealevel;temperature;humidity
72548;BME280;60570;50.848;6.776;2023-03-20T00:00:46;100874.34;;;12.21;68.87
72548;BME280;60570;50.848;6.776;2023-03-20T00:01:47;100873.53;;;12.20;68.60
72548;BME280;60570;50.848;6.776;2023-03-20T00:02:48;100873.53;;;12.20;68.47
72548;BME280;60570;50.848;6.776;2023-03-20T00:03:49;100878.31;;;12.20;68.74
72548;BME280;60570;50.848;6.776;2023-03-20T00:04:49;100877.16;;;12.21;68.49
72548;BME280;60570;50.848;6.776;2023-03-20T00:05:50;100872.75;;;12.20;68.58
72548;BME280;60570;50.848;6.776;2023-03-20T00:06:51;100885.03;;;12.19;68.41
72548;BME280;60570;50.848;6.776;2023-03-20T00:07:51;100885.84;;;12.19;68.57
72548;BME280;60570;50.848;6.776;2023-03-20T00:08:52;100879.44;;;12.19;68.58
72548;BME280;60570;50.848;6.776;2023-03-20T00:09:53;100877.00;;;12.17;68.62
72548;BME280;60570;50.848;6.776;2023-03-20T00:10:56;100875.06;;;12.18;68.54
72548;BME280;60570;50.848;6.776;2023-03-20T00:11:57;100883.72;;;12.16;68.65
72548;BME280;60570;50.848;6.776;2023-03-20T00:12:58;100884.53;;;12.17;68.55
72548;BME280;60570;50.848;6.776;2023-03-20T00:14:03;100880.13;;;12.16;68.58
72548;BME280;60570;50.848;6.776;2023-03-20T00:15:05;100880.13;;;12.16;68.76
72548;BME280;60570;50.848;6.776;2023-03-20T00:16:07;100878.50;;;12.15;68.85
72548;BME280;60570;50.848;6.776;2023-03-20T00:17:10;100886.84;;;12.15;68.56
72548;BME280;60570;50.848;6.776;2023-03-20T00:18:18;100881.28;;;12.15;68.52
72548;BME280;60570;50.848;6.776;2023-03-20T00:19:20;100872.13;;;12.14;68.69
72548;BME280;60570;50.848;6.776;2023-03-20T00:20:25;100884.88;;;12.15;68.56
72548;BME280;60570;50.848;6.776;2023-03-20T00:21:25;100882.09;;;12.15;68.72
72548;BME280;60570;50.848;6.776;2023-03-20T00:22:26;100885.22;;;12.14;68.54
72548;BME280;60570;50.848;6.776;2023-03-20T00:23:28;100880.47;;;12.14;68.49
72548;BME280;60570;50.848;6.776;2023-03-20T00:24:28;100889.63;;;12.15;68.41
72548;BME280;60570;50.848;6.776;2023-03-20T00:25:28;100880.47;;;12.14;68.63
72548;BME280;60570;50.848;6.776;2023-03-20T00:26:33;100879.66;;;12.14;68.44
72548;BME280;60570;50.848;6.776;2023-03-20T00:27:34;100892.75;;;12.13;68.74
72548;BME280;60570;50.848;6.776;2023-03-20T00:28:41;100901.94;;;12.14;68.76
72548;BME280;60570;50.848;6.776;2023-03-20T00:29:43;100901.13;;;12.13;68.54
72548;BME280;60570;50.848;6.776;2023-03-20T00:30:43;100899.16;;;12.14;68.52
72548;BME280;60570;50.848;6.776;2023-03-20T00:31:44;100901.47;;;12.12;68.69
72548;BME280;60570;50.848;6.776;2023-03-20T00:32:44;100905.84;;;12.13;68.44
72548;BME280;60570;50.848;6.776;2023-03-20T00:33:45;100902.28;;;12.12;68.39
72548;BME280;60570;50.848;6.776;2023-03-20T00:34:45;100908.66;;;12.13;68.47
72548;BME280;60570;50.848;6.776;2023-03-20T00:35:45;100900.28;;;12.13;68.49
72548;BME280;60570;50.848;6.776;2023-03-20T00:36:46;100907.03;;;12.12;68.67
72548;BME280;60570;50.848;6.776;2023-03-20T00:37:46;100905.38;;;12.11;68.77
72548;BME280;60570;50.848;6.776;2023-03-20T00:38:47;100906.19;;;12.11;68.57
72548;BME280;60570;50.848;6.776;2023-03-20T00:39:47;100906.53;;;12.10;68.39
72548;BME280;60570;50.848;6.776;2023-03-20T00:40:47;100900.97;;;12.10;68.36
72548;BME280;60570;50.848;6.776;2023-03-20T00:41:59;100910.47;;;12.09;68.45
72548;BME280;60570;50.848;6.776;2023-03-20T00:43:01;100910.16;;;12.10;68.40
72548;BME280;60570;50.848;6.776;2023-03-20T00:44:05;100909.31;;;12.10;68.87
72548;BME280;60570;50.848;6.776;2023-03-20T00:45:11;100906.53;;;12.10;68.48
72548;BME280;60570;50.848;6.776;2023-03-20T00:46:13;100912.47;;;12.08;68.65
72548;BME280;60570;50.848;6.776;2023-03-20T00:48:17;100909.66;;;12.08;68.63
72548;BME280;60570;50.848;6.776;2023-03-20T00:49:19;100910.47;;;12.09;68.70
72548;BME280;60570;50.848;6.776;2023-03-20T00:50:26;100914.41;;;12.08;68.69
72548;BME280;60570;50.848;6.776;2023-03-20T00:51:28;100916.38;;;12.07;68.21
72548;BME280;60570;50.848;6.776;2023-03-20T00:52:29;100916.38;;;12.07;68.49
72548;BME280;60570;50.848;6.776;2023-03-20T00:53:29;100911.63;;;12.08;68.57
72548;BME280;60570;50.848;6.776;2023-03-20T00:54:30;100910.81;;;12.07;68.07
72548;BME280;60570;50.848;6.776;2023-03-20T00:55:31;100911.97;;;12.06;68.56
72548;BME280;60570;50.848;6.776;2023-03-20T00:56:35;100911.16;;;12.06;68.44
72548;BME280;60570;50.848;6.776;2023-03-20T00:57:40;100914.75;;;12.06;68.32
72548;BME280;60570;50.848;6.776;2023-03-20T00:58:42;100911.16;;;12.06;68.47
72548;BME280;60570;50.848;6.776;2023-03-20T01:00:58;100913.09;;;12.05;68.17
72548;BME280;60570;50.848;6.776;2023-03-20T01:01:59;100911.50;;;12.04;68.31
72548;BME280;60570;50.848;6.776;2023-03-20T01:03:00;100909.50;;;12.05;68.37
72548;BME280;60570;50.848;6.776;2023-03-20T01:04:01;100917.84;;;12.05;68.46
72548;BME280;60570;50.848;6.776;2023-03-20T01:05:02;100916.25;;;12.04;68.55
72548;BME280;60570;50.848;6.776;2023-03-20T01:06:04;100917.38;;;12.03;68.44
72548;BME280;60570;50.848;6.776;2023-03-20T01:07:05;100922.94;;;12.03;68.27
72548;BME280;60570;50.848;6.776;2023-03-20T01:08:13;100912.97;;;12.02;68.69
72548;BME280;60570;50.848;6.776;2023-03-20T01:09:14;100916.59;;;12.02;68.56
72548;BME280;60570;50.848;6.776;2023-03-20T01:10:14;100914.94;;;12.01;68.72
72548;BME280;60570;50.848;6.776;2023-03-20T01:11:15;100904.63;;;12.02;68.49
72548;BME280;60570;50.848;6.776;2023-03-20T01:12:20;100911.34;;;12.01;68.57
72548;BME280;60570;50.848;6.776;2023-03-20T01:13:25;100914.94;;;12.01;68.68
72548;BME280;60570;50.848;6.776;2023-03-20T01:14:26;100912.97;;;12.02;68.82
72548;BME280;60570;50.848;6.776;2023-03-20T01:15:29;100909.69;;;12.00;68.42
72548;BME280;60570;50.848;6.776;2023-03-20T01:16:30;100914.44;;;11.99;68.21
72548;BME280;60570;50.848;6.776;2023-03-20T01:17:31;100919.72;;;12.01;68.40
72548;BME280;60570;50.848;6.776;2023-03-20T01:18:31;100916.91;;;12.01;68.50
72548;BME280;60570;50.848;6.776;2023-03-20T01:19:31;100909.38;;;12.01;68.36
72548;BME280;60570;50.848;6.776;2023-03-20T01:20:31;100911.66;;;11.99;68.61
72548;BME280;60570;50.848;6.776;2023-03-20T01:21:32;100910.88;;;11.99;68.51
72548;BME280;60570;50.848;6.776;2023-03-20T01:22:32;100915.28;;;12.00;68.40
72548;BME280;60570;50.848;6.776;2023-03-20T01:23:32;100901.69;;;11.98;68.85
72548;BME280;60570;50.848;6.776;2023-03-20T01:24:33;100908.88;;;11.99;68.41
72548;BME280;60570;50.848;6.776;2023-03-20T01:25:33;100913.66;;;11.99;68.38
72548;BME280;60570;50.848;6.776;2023-03-20T01:26:35;100911.66;;;11.99;68.54
72548;BME280;60570;50.848;6.776;2023-03-20T01:27:35;100904.00;;;11.96;68.36
72548;BME280;60570;50.848;6.776;2023-03-20T01:28:36;100899.25;;;11.97;68.27
72548;BME280;60570;50.848;6.776;2023-03-20T01:29:36;100897.25;;;11.97;68.43
72548;BME280;60570;50.848;6.776;2023-03-20T01:30:36;100902.03;;;11.97;68.67
72548;BME280;60570;50.848;6.776;2023-03-20T01:31:36;100901.22;;;11.96;68.37
72548;BME280;60570;50.848;6.776;2023-03-20T01:32:37;100902.03;;;11.97;68.47
72548;BME280;60570;50.848;6.776;2023-03-20T01:33:37;100896.78;;;11.95;68.53
72548;BME280;60570;50.848;6.776;2023-03-20T01:34:37;100906.78;;;11.96;68.44
72548;BME280;60570;50.848;6.776;2023-03-20T01:35:38;100897.59;;;11.96;68.63
72548;BME280;60570;50.848;6.776;2023-03-20T01:36:38;100899.56;;;11.95;68.61
72548;BME280;60570;50.848;6.776;2023-03-20T01:37:39;100889.59;;;11.94;68.36
72548;BME280;60570;50.848;6.776;2023-03-20T01:38:40;100889.59;;;11.94;68.47
72548;BME280;60570;50.848;6.776;2023-03-20T01:39:40;100892.38;;;11.94;68.48
72548;BME280;60570;50.848;6.776;2023-03-20T01:40:52;100889.59;;;11.94;68.41
72548;BME280;60570;50.848;6.776;2023-03-20T01:41:54;100884.38;;;11.93;68.68
72548;BME280;60570;50.848;6.776;2023-03-20T01:42:54;100884.38;;;11.93;68.51
72548;BME280;60570;50.848;6.776;2023-03-20T01:43:55;100885.16;;;11.93;68.73
72548;BME280;60570;50.848;6.776;2023-03-20T01:44:56;100879.59;;;11.93;68.67
72548;BME280;60570;50.848;6.776;2023-03-20T01:47:18;100877.16;;;11.92;68.85
72548;BME280;60570;50.848;6.776;2023-03-20T01:48:20;100876.31;;;11.91;68.70
72548;BME280;60570;50.848;6.776;2023-03-20T01:50:24;100870.75;;;11.91;68.74
72548;BME280;60570;50.848;6.776;2023-03-20T01:51:30;100874.72;;;11.90;68.76
72548;BME280;60570;50.848;6.776;2023-03-20T01:52:32;100871.59;;;11.92;68.48
72548;BME280;60570;50.848;6.776;2023-03-20T01:53:32;100873.06;;;11.89;68.71
72548;BME280;60570;50.848;6.776;2023-03-20T01:54:33;100874.72;;;11.90;68.61
72548;BME280;60570;50.848;6.776;2023-03-20T01:55:34;100872.25;;;11.89;68.79
72548;BME280;60570;50.848;6.776;2023-03-20T01:56:45;100872.25;;;11.89;68.57
72548;BME280;60570;50.848;6.776;2023-03-20T01:57:47;100876.19;;;11.88;68.59
72548;BME280;60570;50.848;6.776;2023-03-20T01:58:54;100872.56;;;11.87;68.36
72548;BME280;60570;50.848;6.776;2023-03-20T02:00:06;100873.75;;;11.86;68.61
72548;BME280;60570;50.848;6.776;2023-03-20T02:01:09;100873.75;;;11.86;68.78
72548;BME280;60570;50.848;6.776;2023-03-20T02:02:11;100879.66;;;11.85;68.53
72548;BME280;60570;50.848;6.776;2023-03-20T02:03:13;100878.81;;;11.84;68.84
72548;BME280;60570;50.848;6.776;2023-03-20T02:04:15;100880.78;;;11.84;68.66
72548;BME280;60570;50.848;6.776;2023-03-20T02:05:18;100879.16;;;11.83;68.58
72548;BME280;60570;50.848;6.776;2023-03-20T02:06:19;100883.09;;;11.82;68.77
72548;BME280;60570;50.848;6.776;2023-03-20T02:07:21;100889.47;;;11.82;68.83
72548;BME280;60570;50.848;6.776;2023-03-20T02:08:29;100890.31;;;11.83;68.68
72548;BME280;60570;50.848;6.776;2023-03-20T02:09:30;100894.22;;;11.82;68.79
72548;BME280;60570;50.848;6.776;2023-03-20T02:10:30;100883.44;;;11.80;68.58
72548;BME280;60570;50.848;6.776;2023-03-20T02:11:31;100885.38;;;11.80;68.28
72548;BME280;60570;50.848;6.776;2023-03-20T02:12:31;100896.53;;;11.80;68.75
72548;BME280;60570;50.848;6.776;2023-03-20T02:13:32;100896.53;;;11.80;68.72
72548;BME280;60570;50.848;6.776;2023-03-20T02:14:33;100896.53;;;11.80;68.58
72548;BME280;60570;50.848;6.776;2023-03-20T02:15:35;100896.53;;;11.80;68.74
72548;BME280;60570;50.848;6.776;2023-03-20T02:16:35;100902.91;;;11.80;68.47
72548;BME280;60570;50.848;6.776;2023-03-20T02:17:36;100898.50;;;11.79;68.73
72548;BME280;60570;50.848;6.776;2023-03-20T02:18:36;100898.50;;;11.79;68.74
72548;BME280;60570;50.848;6.776;2023-03-20T02:19:49;100897.69;;;11.79;68.72
72548;BME280;60570;50.848;6.776;2023-03-20T02:23:31;100902.44;;;11.78;68.52
72548;BME280;60570;50.848;6.776;2023-03-20T02:28:50;100900.47;;;11.79;68.50
72548;BME280;60570;50.848;6.776;2023-03-20T02:35:39;100887.69;;;11.78;68.39
72548;BME280;60570;50.848;6.776;2023-03-20T02:36:48;100882.47;;;11.76;68.39
72548;BME280;60570;50.848;6.776;2023-03-20T02:43:36;100885.09;;;11.73;68.85
72548;BME280;60570;50.848;6.776;2023-03-20T02:44:47;100883.16;;;11.73;68.70
72548;BME280;60570;50.848;6.776;2023-03-20T02:48:23;100888.56;;;11.69;68.42
72548;BME280;60570;50.848;6.776;2023-03-20T02:50:02;100879.41;;;11.69;68.53
72548;BME280;60570;50.848;6.776;2023-03-20T02:52:15;100864.66;;;11.68;68.75
72548;BME280;60570;50.848;6.776;2023-03-20T02:53:39;100859.44;;;11.67;68.78
72548;BME280;60570;50.848;6.776;2023-03-20T02:54:49;100863.84;;;11.68;68.50
72548;BME280;60570;50.848;6.776;2023-03-20T02:55:55;100864.47;;;11.65;68.59
72548;BME280;60570;50.848;6.776;2023-03-20T02:57:05;100864.16;;;11.66;68.90
72548;BME280;60570;50.848;6.776;2023-03-20T02:59:15;100873.16;;;11.63;68.75
72548;BME280;60570;50.848;6.776;2023-03-20T03:00:23;100882.31;;;11.64;68.77
72548;BME280;60570;50.848;6.776;2023-03-20T03:01:27;100888.69;;;11.64;68.70
72548;BME280;60570;50.848;6.776;2023-03-20T03:02:40;100885.09;;;11.64;68.51
72548;BME280;60570;50.848;6.776;2023-03-20T03:03:49;100885.09;;;11.64;68.83
72548;BME280;60570;50.848;6.776;2023-03-20T03:04:52;100892.66;;;11.63;68.67
72548;BME280;60570;50.848;6.776;2023-03-20T03:05:55;100889.03;;;11.63;68.71
72548;BME280;60570;50.848;6.776;2023-03-20T03:06:57;100891.81;;;11.63;68.66
72548;BME280;60570;50.848;6.776;2023-03-20T03:07:59;100888.22;;;11.62;68.84
72548;BME280;60570;50.848;6.776;2023-03-20T03:10:03;100891.81;;;11.63;68.45
72548;BME280;60570;50.848;6.776;2023-03-20T03:10:41;100889.88;;;11.63;68.49
72548;BME280;60570;50.848;6.776;2023-03-20T03:11:44;100894.59;;;11.63;68.65
72548;BME280;60570;50.848;6.776;2023-03-20T03:12:47;100893.44;;;11.64;68.65
72548;BME280;60570;50.848;6.776;2023-03-20T03:13:49;100888.22;;;11.62;68.37
72548;BME280;60570;50.848;6.776;2023-03-20T03:14:54;100888.22;;;11.62;68.73
72548;BME280;60570;50.848;6.776;2023-03-20T03:15:58;100885.44;;;11.62;68.55
72548;BME280;60570;50.848;6.776;2023-03-20T03:17:03;100879.03;;;11.62;68.83
72548;BME280;60570;50.848;6.776;2023-03-20T03:18:06;100881.81;;;11.62;68.65
72548;BME280;60570;50.848;6.776;2023-03-20T03:19:12;100889.38;;;11.61;68.82
72548;BME280;60570;50.848;6.776;2023-03-20T03:20:18;100898.53;;;11.62;68.58
72548;BME280;60570;50.848;6.776;2023-03-20T03:21:20;100900.50;;;11.61;68.80
72548;BME280;60570;50.848;6.776;2023-03-20T03:22:22;100903.28;;;11.61;68.55
72548;BME280;60570;50.848;6.776;2023-03-20T03:24:47;100899.69;;;11.61;68.31
72548;BME280;60570;50.848;6.776;2023-03-20T03:25:47;100899.69;;;11.61;68.41
72548;BME280;60570;50.848;6.776;2023-03-20T03:26:50;100893.31;;;11.60;68.63
72548;BME280;60570;50.848;6.776;2023-03-20T03:28:00;100904.44;;;11.60;68.90
72548;BME280;60570;50.848;6.776;2023-03-20T03:29:03;100893.63;;;11.59;68.40
72548;BME280;60570;50.848;6.776;2023-03-20T03:30:11;100893.63;;;11.59;68.56
72548;BME280;60570;50.848;6.776;2023-03-20T03:31:13;100890.03;;;11.58;68.29
72548;BME280;60570;50.848;6.776;2023-03-20T03:32:20;100887.25;;;11.58;68.25
72548;BME280;60570;50.848;6.776;2023-03-20T03:33:27;100892.03;;;11.58;68.40
72548;BME280;60570;50.848;6.776;2023-03-20T03:34:28;100890.38;;;11.57;68.50
72548;BME280;60570;50.848;6.776;2023-03-20T03:35:30;100882.03;;;11.57;68.43
72548;BME280;60570;50.848;6.776;2023-03-20T03:39:00;100859.63;;;11.53;68.74
72548;BME280;60570;50.848;6.776;2023-03-20T03:41:19;100862.75;;;11.52;68.55
72548;BME280;60570;50.848;6.776;2023-03-20T03:42:24;100875.50;;;11.53;68.69
72548;BME280;60570;50.848;6.776;2023-03-20T03:43:30;100874.66;;;11.52;68.72
72548;BME280;60570;50.848;6.776;2023-03-20T03:44:34;100875.50;;;11.53;68.58
72548;BME280;60570;50.848;6.776;2023-03-20T03:45:37;100882.22;;;11.52;68.54
72548;BME280;60570;50.848;6.776;2023-03-20T03:46:41;100890.88;;;11.50;68.91
72548;BME280;60570;50.848;6.776;2023-03-20T03:47:51;100900.03;;;11.51;68.68
72548;BME280;60570;50.848;6.776;2023-03-20T03:48:54;100908.38;;;11.51;68.81
72548;BME280;60570;50.848;6.776;2023-03-20T03:49:57;100899.22;;;11.50;68.64
72548;BME280;60570;50.848;6.776;2023-03-20T03:51:01;100902.00;;;11.50;68.75
72548;BME280;60570;50.848;6.776;2023-03-20T03:52:04;100904.00;;;11.50;68.55
72548;BME280;60570;50.848;6.776;2023-03-20T03:53:07;100903.16;;;11.49;68.50
72548;BME280;60570;50.848;6.776;2023-03-20T03:54:13;100905.13;;;11.49;68.35
72548;BME280;60570;50.848;6.776;2023-03-20T03:55:20;100908.72;;;11.49;68.72
72548;BME280;60570;50.848;6.776;2023-03-20T03:56:22;100913.47;;;11.49;68.71
72548;BME280;60570;50.848;6.776;2023-03-20T03:57:30;100913.47;;;11.49;68.70
72548;BME280;60570;50.848;6.776;2023-03-20T03:58:37;100913.81;;;11.47;68.82
72548;BME280;60570;50.848;6.776;2023-03-20T03:59:40;100920.50;;;11.46;68.34
72548;BME280;60570;50.848;6.776;2023-03-20T04:00:41;100918.53;;;11.47;68.76
72548;BME280;60570;50.848;6.776;2023-03-20T04:01:43;100917.72;;;11.46;68.87
72548;BME280;60570;50.848;6.776;2023-03-20T04:02:46;100922.50;;;11.46;68.75
72548;BME280;60570;50.848;6.776;2023-03-20T04:03:50;100917.22;;;11.44;68.39
72548;BME280;60570;50.848;6.776;2023-03-20T04:04:52;100923.63;;;11.45;68.56
72548;BME280;60570;50.848;6.776;2023-03-20T04:05:53;100920.84;;;11.45;68.59
72548;BME280;60570;50.848;6.776;2023-03-20T04:06:55;100922.00;;;11.44;68.46
72548;BME280;60570;50.848;6.776;2023-03-20T04:07:57;100921.19;;;11.43;68.72
72548;BME280;60570;50.848;6.776;2023-03-20T04:08:57;100920.34;;;11.43;68.45
72548;BME280;60570;50.848;6.776;2023-03-20T04:09:58;100920.34;;;11.43;68.55
72548;BME280;60570;50.848;6.776;2023-03-20T04:10:58;100922.34;;;11.42;68.44
72548;BME280;60570;50.848;6.776;2023-03-20T04:11:58;100917.56;;;11.43;68.58
72548;BME280;60570;50.848;6.776;2023-03-20T04:12:59;100907.59;;;11.42;68.57
72548;BME280;60570;50.848;6.776;2023-03-20T04:14:00;100908.75;;;11.41;68.69
72548;BME280;60570;50.848;6.776;2023-03-20T04:15:00;100903.19;;;11.41;68.72
72548;BME280;60570;50.848;6.776;2023-03-20T04:16:01;100913.50;;;11.40;68.65
72548;BME280;60570;50.848;6.776;2023-03-20T04:17:01;100906.28;;;11.39;68.59
72548;BME280;60570;50.848;6.776;2023-03-20T04:18:01;100906.28;;;11.39;68.60
72548;BME280;60570;50.848;6.776;2023-03-20T04:19:01;100914.66;;;11.39;68.34
72548;BME280;60570;50.848;6.776;2023-03-20T04:20:02;100911.03;;;11.39;68.87
72548;BME280;60570;50.848;6.776;2023-03-20T04:21:03;100916.59;;;11.39;68.64
72548;BME280;60570;50.848;6.776;2023-03-20T04:22:03;100913.81;;;11.39;68.73
72548;BME280;60570;50.848;6.776;2023-03-20T04:23:04;100912.19;;;11.38;68.83
72548;BME280;60570;50.848;6.776;2023-03-20T04:24:05;100905.81;;;11.37;68.59
72548;BME280;60570;50.848;6.776;2023-03-20T04:25:06;100904.69;;;11.38;68.33
72548;BME280;60570;50.848;6.776;2023-03-20T04:26:07;100905.81;;;11.37;68.46
72548;BME280;60570;50.848;6.776;2023-03-20T04:27:08;100901.41;;;11.36;68.41
72548;BME280;60570;50.848;6.776;2023-03-20T04:28:08;100901.72;;;11.35;68.41
72548;BME280;60570;50.848;6.776;2023-03-20T04:29:10;100906.50;;;11.34;68.39
72548;BME280;60570;50.848;6.776;2023-03-20T04:30:11;100899.28;;;11.33;68.71
72548;BME280;60570;50.848;6.776;2023-03-20T04:31:11;100910.06;;;11.35;68.43
72548;BME280;60570;50.848;6.776;2023-03-20T04:32:13;100904.84;;;11.33;68.84
72548;BME280;60570;50.848;6.776;2023-03-20T04:33:13;100894.88;;;11.32;68.45
72548;BME280;60570;50.848;6.776;2023-03-20T04:34:13;100896.50;;;11.33;68.68
72548;BME280;60570;50.848;6.776;2023-03-20T04:35:14;100890.94;;;11.33;68.66
72548;BME280;60570;50.848;6.776;2023-03-20T04:36:14;100888.16;;;11.33;68.81
72548;BME280;60570;50.848;6.776;2023-03-20T04:37:15;100892.09;;;11.32;68.48
72548;BME280;60570;50.848;6.776;2023-03-20T04:38:15;100894.06;;;11.32;68.44
72548;BME280;60570;50.848;6.776;2023-03-20T04:39:16;100897.66;;;11.32;68.64
72548;BME280;60570;50.848;6.776;2023-03-20T04:40:16;100897.97;;;11.31;68.72
72548;BME280;60570;50.848;6.776;2023-03-20T04:41:16;100902.41;;;11.32;68.78
72548;BME280;60570;50.848;6.776;2023-03-20T04:42:20;100897.97;;;11.31;68.73
72548;BME280;60570;50.848;6.776;2023-03-20T04:43:20;100901.56;;;11.31;68.73
72548;BME280;60570;50.848;6.776;2023-03-20T04:44:20;100904.34;;;11.31;68.84
72548;BME280;60570;50.848;6.776;2023-03-20T04:45:20;100900.75;;;11.31;68.78
72548;BME280;60570;50.848;6.776;2023-03-20T04:46:21;100891.94;;;11.29;68.47
72548;BME280;60570;50.848;6.776;2023-03-20T04:47:21;100888.34;;;11.28;68.71
72548;BME280;60570;50.848;6.776;2023-03-20T04:48:21;100881.13;;;11.27;68.42
72548;BME280;60570;50.848;6.776;2023-03-20T04:49:22;100883.59;;;11.29;68.54
72548;BME280;60570;50.848;6.776;2023-03-20T04:50:22;100875.56;;;11.27;68.43
72548;BME280;60570;50.848;6.776;2023-03-20T04:51:23;100877.22;;;11.28;68.43
72548;BME280;60570;50.848;6.776;2023-03-20T04:52:23;100877.56;;;11.27;68.38
72548;BME280;60570;50.848;6.776;2023-03-20T04:53:23;100886.69;;;11.27;68.68
72548;BME280;60570;50.848;6.776;2023-03-20T04:54:24;100883.13;;;11.27;68.53
72548;BME280;60570;50.848;6.776;2023-03-20T04:55:24;100885.06;;;11.26;68.82
72548;BME280;60570;50.848;6.776;2023-03-20T04:56:25;100884.25;;;11.26;68.66
72548;BME280;60570;50.848;6.776;2023-03-20T04:57:25;100881.47;;;11.26;68.71
72548;BME280;60570;50.848;6.776;2023-03-20T04:58:26;100891.75;;;11.25;68.65
72548;BME280;60570;50.848;6.776;2023-03-20T04:59:26;100888.19;;;11.25;68.44
72548;BME280;60570;50.848;6.776;2023-03-20T05:00:26;100885.72;;;11.23;68.38
72548;BME280;60570;50.848;6.776;2023-03-20T05:01:27;100885.41;;;11.25;68.58
72548;BME280;60570;50.848;6.776;2023-03-20T05:02:27;100884.59;;;11.24;68.61
72548;BME280;60570;50.848;6.776;2023-03-20T05:03:27;100885.41;;;11.25;68.43
72548;BME280;60570;50.848;6.776;2023-03-20T05:04:27;100896.84;;;11.23;68.51
72548;BME280;60570;50.848;6.776;2023-03-20T05:05:28;100896.84;;;11.23;68.85
72548;BME280;60570;50.848;6.776;2023-03-20T05:06:29;100889.66;;;11.22;68.74
72548;BME280;60570;50.848;6.776;2023-03-20T05:07:30;100886.06;;;11.22;68.69
72548;BME280;60570;50.848;6.776;2023-03-20T05:08:31;100888.84;;;11.22;68.61
72548;BME280;60570;50.848;6.776;2023-03-20T05:09:32;100880.81;;;11.20;68.87
72548;BME280;60570;50.848;6.776;2023-03-20T05:10:32;100876.09;;;11.21;68.63
72548;BME280;60570;50.848;6.776;2023-03-20T05:11:32;100878.03;;;11.20;68.88
72548;BME280;60570;50.848;6.776;2023-03-20T05:12:33;100878.38;;;11.19;68.47
72548;BME280;60570;50.848;6.776;2023-03-20T05:13:33;100879.19;;;11.19;68.54
72548;BME280;60570;50.848;6.776;2023-03-20T05:14:33;100879.19;;;11.19;68.74
72548;BME280;60570;50.848;6.776;2023-03-20T05:15:34;100883.94;;;11.19;68.86
72548;BME280;60570;50.848;6.776;2023-03-20T05:16:34;100872.34;;;11.17;68.44
72548;BME280;60570;50.848;6.776;2023-03-20T05:17:35;100874.28;;;11.16;68.82
72548;BME280;60570;50.848;6.776;2023-03-20T05:18:35;100871.50;;;11.16;68.61
72548;BME280;60570;50.848;6.776;2023-03-20T05:19:35;100873.13;;;11.17;68.39
72548;BME280;60570;50.848;6.776;2023-03-20T05:20:37;100871.50;;;11.16;68.52
72548;BME280;60570;50.848;6.776;2023-03-20T05:21:38;100868.72;;;11.16;68.87
72548;BME280;60570;50.848;6.776;2023-03-20T05:22:38;100869.91;;;11.15;68.80
72548;BME280;60570;50.848;6.776;2023-03-20T05:23:38;100875.44;;;11.15;68.42
72548;BME280;60570;50.848;6.776;2023-03-20T05:24:39;100883.47;;;11.17;68.55
72548;BME280;60570;50.848;6.776;2023-03-20T05:25:39;100876.59;;;11.14;68.78
72548;BME280;60570;50.848;6.776;2023-03-20T05:26:40;100877.41;;;11.15;68.74
72548;BME280;60570;50.848;6.776;2023-03-20T05:27:40;100879.69;;;11.13;68.73
72548;BME280;60570;50.848;6.776;2023-03-20T05:28:40;100876.91;;;11.13;68.55
72548;BME280;60570;50.848;6.776;2023-03-20T05:29:41;100878.88;;;11.12;68.42
72548;BME280;60570;50.848;6.776;2023-03-20T05:30:41;100879.69;;;11.13;68.78
72548;BME280;60570;50.848;6.776;2023-03-20T05:31:41;100877.25;;;11.11;68.50
72548;BME280;60570;50.848;6.776;2023-03-20T05:32:42;100883.63;;;11.12;68.80
72548;BME280;60570;50.848;6.776;2023-03-20T05:33:42;100879.22;;;11.11;68.72
72548;BME280;60570;50.848;6.776;2023-03-20T05:34:43;100875.59;;;11.10;68.47
72548;BME280;60570;50.848;6.776;2023-03-20T05:35:43;100877.56;;;11.10;68.66
72548;BME280;60570;50.848;6.776;2023-03-20T05:36:43;100878.72;;;11.09;68.52
72548;BME280;60570;50.848;6.776;2023-03-20T05:37:44;100882.31;;;11.09;68.86
72548;BME280;60570;50.848;6.776;2023-03-20T05:38:45;100879.56;;;11.09;68.79
72548;BME280;60570;50.848;6.776;2023-03-20T05:39:45;100872.00;;;11.10;68.56
72548;BME280;60570;50.848;6.776;2023-03-20T05:40:45;100874.78;;;11.10;68.69
72548;BME280;60570;50.848;6.776;2023-03-20T05:41:46;100871.22;;;11.09;68.61
72548;BME280;60570;50.848;6.776;2023-03-20T05:42:46;100875.94;;;11.09;68.53
72548;BME280;60570;50.848;6.776;2023-03-20T05:43:47;100881.84;;;11.07;68.70
72548;BME280;60570;50.848;6.776;2023-03-20T05:44:47;100883.47;;;11.08;68.90
72548;BME280;60570;50.848;6.776;2023-03-20T05:45:47;100879.06;;;11.07;68.51
72548;BME280;60570;50.848;6.776;2023-03-20T05:46:47;100887.41;;;11.07;68.54
72548;BME280;60570;50.848;6.776;2023-03-20T05:47:48;100881.84;;;11.07;68.38
72548;BME280;60570;50.848;6.776;2023-03-20T05:48:48;100882.16;;;11.06;68.51
72548;BME280;60570;50.848;6.776;2023-03-20T05:49:48;100881.00;;;11.07;68.63
72548;BME280;60570;50.848;6.776;2023-03-20T05:50:49;100886.56;;;11.07;68.53
72548;BME280;60570;50.848;6.776;2023-03-20T05:51:49;100874.97;;;11.05;68.76
72548;BME280;60570;50.848;6.776;2023-03-20T05:52:50;100879.72;;;11.04;68.34
72548;BME280;60570;50.848;6.776;2023-03-20T05:53:50;100878.56;;;11.05;68.46
72548;BME280;60570;50.848;6.776;2023-03-20T05:54:50;100888.03;;;11.04;68.36
72548;BME280;60570;50.848;6.776;2023-03-20T05:55:51;100888.03;;;11.04;68.63
72548;BME280;60570;50.848;6.776;2023-03-20T05:56:51;100883.31;;;11.05;68.59
72548;BME280;60570;50.848;6.776;2023-03-20T05:57:51;100884.44;;;11.04;68.64
72548;BME280;60570;50.848;6.776;2023-03-20T05:58:52;100887.22;;;11.04;68.46